sensor_id;sensor_type;location;lat;lon;timestamp;pressure;altitude;pressure_sealevel;temperature;humidity
12973;BME280;6551;51.056;9.466;2022-08-24T00:01:19;97861.84;;;26.12;47.97
12973;BME280;6551;51.056;9.466;2022-08-24T00:03:46;97864.88;;;25.80;47.56
12973;BME280;6551;51.056;9.466;2022-08-24T00:06:17;97864.13;;;25.66;48.11
12973;BME280;6551;51.056;9.466;2022-08-24T00:08:45;97862.94;;;25.36;48.73
12973;BME280;6551;51.056;9.466;2022-08-24T00:11:10;97862.38;;;25.26;48.98
12973;BME280;6551;51.056;9.466;2022-08-24T00:13:37;97867.25;;;25.51;48.71
12973;BME280;6551;51.056;9.466;2022-08-24T00:16:05;97863.44;;;25.83;47.70
12973;BME280;6551;51.056;9.466;2022-08-24T00:18:31;97867.41;;;25.77;47.79
12973;BME280;6551;51.056;9.466;2022-08-24T00:20:58;97871.75;;;25.78;47.72
12973;BME280;6551;51.056;9.466;2022-08-24T00:23:24;97869.72;;;25.61;48.02
12973;BME280;6551;51.056;9.466;2022-08-24T00:25:50;97870.78;;;25.74;47.98
12973;BME280;6551;51.056;9.466;2022-08-24T00:28:16;97870.22;;;25.63;48.15
12973;BME280;6551;51.056;9.466;2022-08-24T00:30:42;97869.47;;;25.49;48.44
12973;BME280;6551;51.056;9.466;2022-08-24T00:33:08;97868.97;;;25.69;48.43
12973;BME280;6551;51.056;9.466;2022-08-24T00:35:34;97865.22;;;25.56;48.21
12973;BME280;6551;51.056;9.466;2022-08-24T00:37:59;97877.97;;;25.70;48.34
12973;BME280;6551;51.056;9.466;2022-08-24T00:40:34;97882.59;;;25.91;48.16
12973;BME280;6551;51.056;9.466;2022-08-24T00:43:03;97879.09;;;26.22;47.70
12973;BME280;6551;51.056;9.466;2022-08-24T00:45:36;97879.72;;;26.19;47.90
12973;BME280;6551;51.056;9.466;2022-08-24T00:48:14;97880.31;;;26.46;47.63
12973;BME280;6551;51.056;9.466;2022-08-24T00:51:05;97883.94;;;26.72;46.47
12973;BME280;6551;51.056;9.466;2022-08-24T00:53:39;97885.34;;;27.18;46.15
12973;BME280;6551;51.056;9.466;2022-08-24T00:56:11;97871.81;;;27.21;46.08
12973;BME280;6551;51.056;9.466;2022-08-24T00:58:54;97878.59;;;27.41;45.81
12973;BME280;6551;51.056;9.466;2022-08-24T01:01:21;97875.41;;;27.48;46.01
12973;BME280;6551;51.056;9.466;2022-08-24T01:03:46;97871.53;;;27.49;45.50
12973;BME280;6551;51.056;9.466;2022-08-24T01:06:13;97870.22;;;27.63;45.73
12973;BME280;6551;51.056;9.466;2022-08-24T01:08:40;97871.81;;;27.73;45.31
12973;BME280;6551;51.056;9.466;2022-08-24T01:11:11;97877.09;;;27.95;45.25
12973;BME280;6551;51.056;9.466;2022-08-24T01:13:41;97878.06;;;27.91;44.98
12973;BME280;6551;51.056;9.466;2022-08-24T01:16:09;97870.00;;;27.94;45.01
12973;BME280;6551;51.056;9.466;2022-08-24T01:18:36;97878.22;;;27.94;44.89
12973;BME280;6551;51.056;9.466;2022-08-24T01:23:56;97878.09;;;27.82;45.14
12973;BME280;6551;51.056;9.466;2022-08-24T01:26:47;97873.75;;;27.72;45.25
12973;BME280;6551;51.056;9.466;2022-08-24T01:29:18;97877.41;;;27.85;45.52
12973;BME280;6551;51.056;9.466;2022-08-24T01:31:45;97872.13;;;27.80;45.07
12973;BME280;6551;51.056;9.466;2022-08-24T01:34:10;97875.38;;;27.82;45.33
12973;BME280;6551;51.056;9.466;2022-08-24T01:36:43;97879.69;;;27.92;45.11
12973;BME280;6551;51.056;9.466;2022-08-24T01:39:18;97875.03;;;27.66;45.53
12973;BME280;6551;51.056;9.466;2022-08-24T01:41:46;97879.72;;;27.40;45.73
12973;BME280;6551;51.056;9.466;2022-08-24T01:44:13;97877.94;;;27.36;45.91
12973;BME280;6551;51.056;9.466;2022-08-24T01:46:44;97875.22;;;27.53;45.69
12973;BME280;6551;51.056;9.466;2022-08-24T01:49:11;97882.59;;;27.35;46.09
12973;BME280;6551;51.056;9.466;2022-08-24T01:51:36;97881.16;;;27.38;45.78
12973;BME280;6551;51.056;9.466;2022-08-24T01:54:03;97873.94;;;27.42;45.99
12973;BME280;6551;51.056;9.466;2022-08-24T01:56:31;97880.38;;;27.37;45.97
12973;BME280;6551;51.056;9.466;2022-08-24T01:58:58;97875.06;;;27.49;45.78
12973;BME280;6551;51.056;9.466;2022-08-24T02:01:26;97878.94;;;27.48;45.58
12973;BME280;6551;51.056;9.466;2022-08-24T02:03:53;97875.22;;;27.53;45.51
12973;BME280;6551;51.056;9.466;2022-08-24T02:06:19;97878.78;;;27.45;45.82
12973;BME280;6551;51.056;9.466;2022-08-24T02:08:45;97884.38;;;27.40;45.69
12973;BME280;6551;51.056;9.466;2022-08-24T02:11:11;97882.31;;;27.45;45.86
12973;BME280;6551;51.056;9.466;2022-08-24T02:13:39;97878.78;;;27.45;45.70
12973;BME280;6551;51.056;9.466;2022-08-24T02:16:06;97885.84;;;27.37;45.66
12973;BME280;6551;51.056;9.466;2022-08-24T02:18:34;97882.75;;;27.30;45.77
12973;BME280;6551;51.056;9.466;2022-08-24T02:21:00;97889.84;;;27.22;46.22
12973;BME280;6551;51.056;9.466;2022-08-24T02:23:27;97891.94;;;27.25;46.02
12973;BME280;6551;51.056;9.466;2022-08-24T02:25:55;97892.09;;;27.12;46.00
12973;BME280;6551;51.056;9.466;2022-08-24T02:28:21;97898.84;;;27.06;46.32
12973;BME280;6551;51.056;9.466;2022-08-24T02:30:48;97893.38;;;27.14;46.35
12973;BME280;6551;51.056;9.466;2022-08-24T02:33:14;97885.81;;;27.03;46.37
12973;BME280;6551;51.056;9.466;2022-08-24T02:35:39;97890.94;;;27.13;46.07
12973;BME280;6551;51.056;9.466;2022-08-24T02:38:07;97888.72;;;27.23;46.18
12973;BME280;6551;51.056;9.466;2022-08-24T02:40:35;97889.38;;;27.20;46.10
12973;BME280;6551;51.056;9.466;2022-08-24T02:43:01;97889.34;;;27.12;45.92
12973;BME280;6551;51.056;9.466;2022-08-24T02:45:27;97890.47;;;27.02;46.23
12973;BME280;6551;51.056;9.466;2022-08-24T02:47:52;97896.28;;;27.26;45.36
12973;BME280;6551;51.056;9.466;2022-08-24T02:50:19;97891.75;;;27.22;45.39
12973;BME280;6551;51.056;9.466;2022-08-24T02:52:44;97907.63;;;26.46;46.78
12973;BME280;6551;51.056;9.466;2022-08-24T02:55:16;97900.31;;;26.02;48.12
12973;BME280;6551;51.056;9.466;2022-08-24T02:57:42;97893.69;;;25.95;48.27
12973;BME280;6551;51.056;9.466;2022-08-24T03:00:12;97894.53;;;26.26;48.02
12973;BME280;6551;51.056;9.466;2022-08-24T03:02:39;97894.16;;;26.50;47.51
12973;BME280;6551;51.056;9.466;2022-08-24T03:05:06;97897.91;;;26.62;47.27
12973;BME280;6551;51.056;9.466;2022-08-24T03:07:32;97892.88;;;26.95;46.72
12973;BME280;6551;51.056;9.466;2022-08-24T03:09:57;97895.88;;;26.77;46.92
12973;BME280;6551;51.056;9.466;2022-08-24T03:12:23;97897.06;;;27.01;46.74
12973;BME280;6551;51.056;9.466;2022-08-24T03:14:49;97899.16;;;27.21;46.18
12973;BME280;6551;51.056;9.466;2022-08-24T03:17:14;97904.03;;;27.42;45.85
12973;BME280;6551;51.056;9.466;2022-08-24T03:19:40;97903.84;;;27.21;46.27
12973;BME280;6551;51.056;9.466;2022-08-24T03:22:06;97901.91;;;27.30;45.72
12973;BME280;6551;51.056;9.466;2022-08-24T03:24:32;97898.34;;;27.29;45.99
12973;BME280;6551;51.056;9.466;2022-08-24T03:26:58;97898.84;;;27.23;46.31
12973;BME280;6551;51.056;9.466;2022-08-24T03:29:23;97902.56;;;27.36;46.00
12973;BME280;6551;51.056;9.466;2022-08-24T03:31:49;97894.84;;;27.38;45.83
12973;BME280;6551;51.056;9.466;2022-08-24T03:34:15;97903.06;;;27.38;45.73
12973;BME280;6551;51.056;9.466;2022-08-24T03:36:42;97903.22;;;27.50;45.66
12973;BME280;6551;51.056;9.466;2022-08-24T03:39:13;97906.59;;;27.81;44.94
12973;BME280;6551;51.056;9.466;2022-08-24T03:41:39;97892.56;;;27.82;44.76
12973;BME280;6551;51.056;9.466;2022-08-24T03:44:04;97892.28;;;27.67;45.34
12973;BME280;6551;51.056;9.466;2022-08-24T03:46:35;97887.91;;;27.66;45.57
12973;BME280;6551;51.056;9.466;2022-08-24T03:49:03;97895.00;;;27.75;45.31
12973;BME280;6551;51.056;9.466;2022-08-24T03:51:30;97893.91;;;27.68;45.33
12973;BME280;6551;51.056;9.466;2022-08-24T03:53:58;97890.84;;;27.44;45.55
12973;BME280;6551;51.056;9.466;2022-08-24T03:56:25;97889.00;;;27.05;46.34
12973;BME280;6551;51.056;9.466;2022-08-24T03:58:51;97886.94;;;27.10;46.18
12973;BME280;6551;51.056;9.466;2022-08-24T04:01:18;97887.56;;;27.07;46.05
12973;BME280;6551;51.056;9.466;2022-08-24T04:03:46;97893.84;;;27.08;46.08
12973;BME280;6551;51.056;9.466;2022-08-24T04:06:15;97889.00;;;27.05;45.95
12973;BME280;6551;51.056;9.466;2022-08-24T04:08:42;97886.47;;;27.25;45.86
12973;BME280;6551;51.056;9.466;2022-08-24T04:11:15;97885.50;;;27.30;45.84
12973;BME280;6551;51.056;9.466;2022-08-24T04:13:42;97883.84;;;26.95;45.97
12973;BME280;6551;51.056;9.466;2022-08-24T04:16:14;97884.19;;;26.85;46.42
12973;BME280;6551;51.056;9.466;2022-08-24T04:18:40;97898.28;;;26.78;46.42
12973;BME280;6551;51.056;9.466;2022-08-24T04:21:31;97894.13;;;26.89;46.29
12973;BME280;6551;51.056;9.466;2022-08-24T04:23:59;97896.03;;;26.80;46.35
12973;BME280;6551;51.056;9.466;2022-08-24T04:26:27;97900.41;;;26.81;46.50
12973;BME280;6551;51.056;9.466;2022-08-24T04:28:55;97903.94;;;26.82;46.19
12973;BME280;6551;51.056;9.466;2022-08-24T04:31:21;97899.84;;;26.70;46.70
12973;BME280;6551;51.056;9.466;2022-08-24T04:33:48;97893.47;;;26.84;46.56
12973;BME280;6551;51.056;9.466;2022-08-24T04:36:19;97907.16;;;26.84;46.32
12973;BME280;6551;51.056;9.466;2022-08-24T04:38:46;97906.78;;;26.77;46.37
12973;BME280;6551;51.056;9.466;2022-08-24T04:41:13;97898.81;;;26.97;46.18
12973;BME280;6551;51.056;9.466;2022-08-24T04:43:41;97900.72;;;26.97;45.93
12973;BME280;6551;51.056;9.466;2022-08-24T04:46:12;97911.50;;;26.85;46.43
12973;BME280;6551;51.056;9.466;2022-08-24T04:48:44;97925.31;;;26.88;46.21
12973;BME280;6551;51.056;9.466;2022-08-24T04:51:12;97918.75;;;26.98;46.22
12973;BME280;6551;51.056;9.466;2022-08-24T04:53:38;97912.03;;;27.04;46.14
12973;BME280;6551;51.056;9.466;2022-08-24T04:56:15;97913.97;;;27.12;45.88
12973;BME280;6551;51.056;9.466;2022-08-24T04:58:42;97919.03;;;26.79;46.29
12973;BME280;6551;51.056;9.466;2022-08-24T05:01:12;97921.81;;;26.88;46.20
12973;BME280;6551;51.056;9.466;2022-08-24T05:03:38;97926.13;;;26.89;46.39
12973;BME280;6551;51.056;9.466;2022-08-24T05:06:04;97918.59;;;26.94;46.33
12973;BME280;6551;51.056;9.466;2022-08-24T05:08:30;97916.88;;;27.15;46.02
12973;BME280;6551;51.056;9.466;2022-08-24T05:10:56;97918.53;;;27.51;45.12
12973;BME280;6551;51.056;9.466;2022-08-24T05:13:22;97912.41;;;27.71;44.88
12973;BME280;6551;51.056;9.466;2022-08-24T05:15:48;97916.25;;;27.87;44.79
12973;BME280;6551;51.056;9.466;2022-08-24T05:18:15;97914.38;;;28.34;44.07
12973;BME280;6551;51.056;9.466;2022-08-24T05:20:44;97915.22;;;28.72;43.08
12973;BME280;6551;51.056;9.466;2022-08-24T05:23:11;97919.00;;;29.18;42.39
12973;BME280;6551;51.056;9.466;2022-08-24T05:25:38;97919.84;;;29.60;41.60
12973;BME280;6551;51.056;9.466;2022-08-24T05:28:05;97924.78;;;29.87;41.51
12973;BME280;6551;51.056;9.466;2022-08-24T05:30:31;97921.66;;;30.09;41.17
12973;BME280;6551;51.056;9.466;2022-08-24T05:32:57;97930.41;;;30.35;40.11
12973;BME280;6551;51.056;9.466;2022-08-24T05:35:23;97929.22;;;30.12;40.87
12973;BME280;6551;51.056;9.466;2022-08-24T05:37:48;97930.91;;;30.37;40.36
12973;BME280;6551;51.056;9.466;2022-08-24T05:40:17;97929.88;;;30.42;40.57
12973;BME280;6551;51.056;9.466;2022-08-24T05:42:45;97933.22;;;30.71;40.63
12973;BME280;6551;51.056;9.466;2022-08-24T05:45:11;97934.84;;;30.85;39.71
12973;BME280;6551;51.056;9.466;2022-08-24T05:47:37;97933.13;;;30.80;39.62
12973;BME280;6551;51.056;9.466;2022-08-24T05:50:05;97930.81;;;30.82;40.16
12973;BME280;6551;51.056;9.466;2022-08-24T05:52:31;97935.53;;;30.82;39.99
12973;BME280;6551;51.056;9.466;2022-08-24T05:54:59;97938.06;;;30.87;39.47
12973;BME280;6551;51.056;9.466;2022-08-24T05:57:32;97928.09;;;31.06;39.27
12973;BME280;6551;51.056;9.466;2022-08-24T05:59:59;97931.31;;;31.20;39.44
12973;BME280;6551;51.056;9.466;2022-08-24T06:02:25;97939.44;;;31.29;39.35
12973;BME280;6551;51.056;9.466;2022-08-24T06:04:51;97946.53;;;31.54;38.51
12973;BME280;6551;51.056;9.466;2022-08-24T06:07:17;97940.22;;;31.81;38.15
12973;BME280;6551;51.056;9.466;2022-08-24T06:09:43;97937.34;;;31.78;38.17
12973;BME280;6551;51.056;9.466;2022-08-24T06:12:09;97935.06;;;31.80;38.41
12973;BME280;6551;51.056;9.466;2022-08-24T06:14:36;97935.88;;;31.96;38.54
12973;BME280;6551;51.056;9.466;2022-08-24T06:17:06;97941.66;;;32.19;37.75
12973;BME280;6551;51.056;9.466;2022-08-24T06:19:32;97942.91;;;32.21;38.07
12973;BME280;6551;51.056;9.466;2022-08-24T06:21:58;97941.44;;;32.39;37.85
12973;BME280;6551;51.056;9.466;2022-08-24T06:24:27;97948.19;;;32.54;37.67
12973;BME280;6551;51.056;9.466;2022-08-24T06:27:14;97935.09;;;32.67;37.68
12973;BME280;6551;51.056;9.466;2022-08-24T06:29:56;97939.69;;;32.94;37.70
12973;BME280;6551;51.056;9.466;2022-08-24T06:32:23;97939.97;;;32.89;37.48
12973;BME280;6551;51.056;9.466;2022-08-24T06:34:49;97939.34;;;32.95;37.33
12973;BME280;6551;51.056;9.466;2022-08-24T06:37:15;97953.72;;;33.05;37.49
12973;BME280;6551;51.056;9.466;2022-08-24T06:39:41;97944.41;;;32.93;37.59
12973;BME280;6551;51.056;9.466;2022-08-24T06:42:07;97945.75;;;32.99;37.34
12973;BME280;6551;51.056;9.466;2022-08-24T06:44:33;97946.34;;;33.24;37.00
12973;BME280;6551;51.056;9.466;2022-08-24T06:46:59;97946.34;;;33.24;37.21
12973;BME280;6551;51.056;9.466;2022-08-24T06:49:24;97944.25;;;33.18;37.26
12973;BME280;6551;51.056;9.466;2022-08-24T06:51:50;97950.09;;;33.01;37.49
12973;BME280;6551;51.056;9.466;2022-08-24T06:54:17;97951.97;;;32.96;37.62
12973;BME280;6551;51.056;9.466;2022-08-24T06:56:43;97955.25;;;33.02;38.04
12973;BME280;6551;51.056;9.466;2022-08-24T06:59:09;97952.25;;;32.91;37.74
12973;BME280;6551;51.056;9.466;2022-08-24T07:01:34;97956.19;;;33.06;37.91
12973;BME280;6551;51.056;9.466;2022-08-24T07:04:00;97952.28;;;33.42;38.08
12973;BME280;6551;51.056;9.466;2022-08-24T07:06:26;97956.16;;;33.57;37.38
12973;BME280;6551;51.056;9.466;2022-08-24T07:08:52;97957.81;;;33.96;36.89
12973;BME280;6551;51.056;9.466;2022-08-24T07:11:19;97953.13;;;34.19;36.61
12973;BME280;6551;51.056;9.466;2022-08-24T07:13:46;97956.38;;;34.44;36.48
12973;BME280;6551;51.056;9.466;2022-08-24T07:16:14;97961.09;;;34.21;36.32
12973;BME280;6551;51.056;9.466;2022-08-24T07:18:41;97963.75;;;34.36;36.09
12973;BME280;6551;51.056;9.466;2022-08-24T07:21:07;97964.16;;;34.38;35.71
12973;BME280;6551;51.056;9.466;2022-08-24T07:23:32;97962.66;;;34.22;36.99
12973;BME280;6551;51.056;9.466;2022-08-24T07:26:12;97965.50;;;34.67;36.44
12973;BME280;6551;51.056;9.466;2022-08-24T07:28:39;97971.69;;;35.06;35.87
12973;BME280;6551;51.056;9.466;2022-08-24T07:31:06;97975.03;;;35.41;34.95
12973;BME280;6551;51.056;9.466;2022-08-24T07:33:34;97972.84;;;35.54;35.23
12973;BME280;6551;51.056;9.466;2022-08-24T07:36:00;97977.69;;;35.60;35.31
12973;BME280;6551;51.056;9.466;2022-08-24T07:38:26;97971.81;;;35.62;35.08
12973;BME280;6551;51.056;9.466;2022-08-24T07:40:52;97970.31;;;35.71;35.18
12973;BME280;6551;51.056;9.466;2022-08-24T07:43:19;97971.78;;;35.36;34.80
12973;BME280;6551;51.056;9.466;2022-08-24T07:45:47;97972.19;;;35.38;34.91
12973;BME280;6551;51.056;9.466;2022-08-24T07:48:14;97974.56;;;35.36;35.45
12973;BME280;6551;51.056;9.466;2022-08-24T07:50:40;97976.38;;;35.24;34.88
12973;BME280;6551;51.056;9.466;2022-08-24T07:53:06;97985.00;;;35.46;35.54
12973;BME280;6551;51.056;9.466;2022-08-24T07:55:31;97983.13;;;35.53;34.79
12973;BME280;6551;51.056;9.466;2022-08-24T07:57:57;97982.28;;;35.75;33.99
12973;BME280;6551;51.056;9.466;2022-08-24T08:00:24;97990.09;;;36.29;33.85
12973;BME280;6551;51.056;9.466;2022-08-24T08:02:50;97987.84;;;36.42;33.67
12973;BME280;6551;51.056;9.466;2022-08-24T08:05:21;97991.75;;;36.71;33.25
12973;BME280;6551;51.056;9.466;2022-08-24T08:07:48;97993.88;;;36.88;33.19
12973;BME280;6551;51.056;9.466;2022-08-24T08:10:14;97991.16;;;36.95;32.46
12973;BME280;6551;51.056;9.466;2022-08-24T08:12:41;97993.72;;;37.14;32.67
12973;BME280;6551;51.056;9.466;2022-08-24T08:15:08;97994.31;;;37.37;32.44
12973;BME280;6551;51.056;9.466;2022-08-24T08:17:37;97997.63;;;37.57;31.43
12973;BME280;6551;51.056;9.466;2022-08-24T08:20:07;98001.97;;;37.55;31.91
12973;BME280;6551;51.056;9.466;2022-08-24T08:22:33;98005.53;;;37.52;31.44
12973;BME280;6551;51.056;9.466;2022-08-24T08:25:18;97996.19;;;37.84;30.77
12973;BME280;6551;51.056;9.466;2022-08-24T08:27:44;97995.31;;;37.70;30.66
12973;BME280;6551;51.056;9.466;2022-08-24T08:30:11;98000.28;;;37.39;29.44
12973;BME280;6551;51.056;9.466;2022-08-24T08:32:37;97996.31;;;36.19;30.08
12973;BME280;6551;51.056;9.466;2022-08-24T08:35:04;97995.13;;;35.61;31.44
12973;BME280;6551;51.056;9.466;2022-08-24T08:37:30;98002.78;;;35.18;32.33
12973;BME280;6551;51.056;9.466;2022-08-24T08:39:56;98003.47;;;35.12;32.46
12973;BME280;6551;51.056;9.466;2022-08-24T08:45:46;97995.28;;;35.45;32.76
12973;BME280;6551;51.056;9.466;2022-08-24T08:48:55;97999.03;;;36.16;31.14
12973;BME280;6551;51.056;9.466;2022-08-24T08:57:28;97989.69;;;35.98;32.45
12973;BME280;6551;51.056;9.466;2022-08-24T09:00:21;97990.50;;;36.65;31.81
12973;BME280;6551;51.056;9.466;2022-08-24T09:03:36;97992.09;;;37.06;31.50
12973;BME280;6551;51.056;9.466;2022-08-24T09:09:14;97990.03;;;37.51;31.03
12973;BME280;6551;51.056;9.466;2022-08-24T09:29:45;97990.72;;;37.95;28.71
12973;BME280;6551;51.056;9.466;2022-08-24T09:35:34;97989.78;;;39.02;27.54
12973;BME280;6551;51.056;9.466;2022-08-24T09:47:09;97996.56;;;39.64;26.50
12973;BME280;6551;51.056;9.466;2022-08-24T09:49:52;97991.81;;;39.40;26.32
12973;BME280;6551;51.056;9.466;2022-08-24T09:55:51;97998.84;;;39.94;26.50
12973;BME280;6551;51.056;9.466;2022-08-24T09:58:52;97990.78;;;40.21;26.30
12973;BME280;6551;51.056;9.466;2022-08-24T10:01:48;97991.13;;;40.34;25.21
12973;BME280;6551;51.056;9.466;2022-08-24T10:07:27;97985.75;;;40.67;24.54
12973;BME280;6551;51.056;9.466;2022-08-24T10:13:02;97977.78;;;40.66;24.73
12973;BME280;6551;51.056;9.466;2022-08-24T10:18:59;97980.66;;;40.55;25.29
12973;BME280;6551;51.056;9.466;2022-08-24T10:25:26;97972.69;;;40.43;26.42
12973;BME280;6551;51.056;9.466;2022-08-24T10:54:48;97951.28;;;40.92;25.74
12973;BME280;6551;51.056;9.466;2022-08-24T10:57:38;97953.56;;;41.04;24.89
12973;BME280;6551;51.056;9.466;2022-08-24T11:00:14;97951.03;;;41.20;25.33
12973;BME280;6551;51.056;9.466;2022-08-24T11:02:44;97951.03;;;41.20;25.76
12973;BME280;6551;51.056;9.466;2022-08-24T11:05:14;97947.19;;;41.44;25.34
12973;BME280;6551;51.056;9.466;2022-08-24T11:08:01;97951.91;;;41.54;25.29
12973;BME280;6551;51.056;9.466;2022-08-24T11:10:37;97940.34;;;41.08;25.03
12973;BME280;6551;51.056;9.466;2022-08-24T11:13:25;97944.16;;;40.76;25.17
12973;BME280;6551;51.056;9.466;2022-08-24T11:16:03;97944.09;;;40.87;25.25
12973;BME280;6551;51.056;9.466;2022-08-24T11:18:49;97947.66;;;40.95;25.06
12973;BME280;6551;51.056;9.466;2022-08-24T11:21:44;97948.47;;;40.95;24.69
12973;BME280;6551;51.056;9.466;2022-08-24T11:24:40;97940.72;;;40.58;24.86
12973;BME280;6551;51.056;9.466;2022-08-24T11:32:29;97940.81;;;40.99;25.25
12973;BME280;6551;51.056;9.466;2022-08-24T11:35:46;97941.72;;;40.85;24.53
12973;BME280;6551;51.056;9.466;2022-08-24T11:38:23;97947.94;;;40.56;24.92
12973;BME280;6551;51.056;9.466;2022-08-24T11:41:06;97934.31;;;40.65;25.59
12973;BME280;6551;51.056;9.466;2022-08-24T11:44:15;97933.31;;;40.89;24.61
12973;BME280;6551;51.056;9.466;2022-08-24T11:47:21;97939.88;;;39.92;24.97
12973;BME280;6551;51.056;9.466;2022-08-24T11:52:55;97938.06;;;38.83;26.98
12973;BME280;6551;51.056;9.466;2022-08-24T11:58:39;97939.66;;;39.23;26.14
12973;BME280;6551;51.056;9.466;2022-08-24T12:01:33;97938.03;;;39.40;26.11
12973;BME280;6551;51.056;9.466;2022-08-24T12:09:55;97935.28;;;39.15;26.09
12973;BME280;6551;51.056;9.466;2022-08-24T12:12:45;97935.69;;;38.78;27.32
12973;BME280;6551;51.056;9.466;2022-08-24T12:15:46;97930.78;;;38.19;26.49
12973;BME280;6551;51.056;9.466;2022-08-24T12:19:03;97923.53;;;37.89;26.94
12973;BME280;6551;51.056;9.466;2022-08-24T12:21:33;97920.16;;;37.52;28.11
12973;BME280;6551;51.056;9.466;2022-08-24T12:24:08;97923.63;;;37.38;28.01
12973;BME280;6551;51.056;9.466;2022-08-24T12:26:48;97925.16;;;37.25;27.73
12973;BME280;6551;51.056;9.466;2022-08-24T12:31:58;97922.72;;;37.17;27.41
12973;BME280;6551;51.056;9.466;2022-08-24T12:37:34;97909.41;;;37.47;27.59
12973;BME280;6551;51.056;9.466;2022-08-24T12:40:45;97908.25;;;37.55;27.64
12973;BME280;6551;51.056;9.466;2022-08-24T12:46:03;97904.97;;;37.39;27.58
12973;BME280;6551;51.056;9.466;2022-08-24T12:49:17;97905.25;;;37.16;27.36
12973;BME280;6551;51.056;9.466;2022-08-24T12:52:23;97906.03;;;37.17;27.45
12973;BME280;6551;51.056;9.466;2022-08-24T12:55:34;97910.34;;;37.04;27.39
12973;BME280;6551;51.056;9.466;2022-08-24T13:01:19;97898.31;;;36.92;27.45
12973;BME280;6551;51.056;9.466;2022-08-24T13:04:05;97904.78;;;37.07;28.34
12973;BME280;6551;51.056;9.466;2022-08-24T13:09:42;97905.19;;;37.06;27.86
12973;BME280;6551;51.056;9.466;2022-08-24T13:15:49;97897.16;;;37.55;27.42
12973;BME280;6551;51.056;9.466;2022-08-24T13:45:17;97884.41;;;36.89;28.26
12973;BME280;6551;51.056;9.466;2022-08-24T13:56:54;97880.84;;;36.92;27.95
12973;BME280;6551;51.056;9.466;2022-08-24T13:59:46;97881.97;;;36.80;27.91
12973;BME280;6551;51.056;9.466;2022-08-24T14:05:32;97868.13;;;36.87;28.90
12973;BME280;6551;51.056;9.466;2022-08-24T14:11:16;97877.84;;;36.20;29.04
12973;BME280;6551;51.056;9.466;2022-08-24T14:14:05;97864.78;;;36.24;28.37
12973;BME280;6551;51.056;9.466;2022-08-24T14:17:00;97864.75;;;36.17;29.24
12973;BME280;6551;51.056;9.466;2022-08-24T14:25:29;97873.53;;;35.56;29.46
12973;BME280;6551;51.056;9.466;2022-08-24T14:33:10;97864.38;;;35.85;29.42
12973;BME280;6551;51.056;9.466;2022-08-24T14:41:44;97866.91;;;35.34;30.12
12973;BME280;6551;51.056;9.466;2022-08-24T14:47:22;97866.72;;;35.20;30.72
12973;BME280;6551;51.056;9.466;2022-08-24T14:50:05;97861.31;;;35.31;29.91
12973;BME280;6551;51.056;9.466;2022-08-24T14:55:38;97850.69;;;35.66;29.77
12973;BME280;6551;51.056;9.466;2022-08-24T15:01:11;97855.97;;;35.45;29.92
12973;BME280;6551;51.056;9.466;2022-08-24T15:07:26;97840.22;;;35.52;30.04
12973;BME280;6551;51.056;9.466;2022-08-24T15:09:54;97844.66;;;35.57;30.50
12973;BME280;6551;51.056;9.466;2022-08-24T15:13:54;97849.56;;;35.41;29.93
12973;BME280;6551;51.056;9.466;2022-08-24T15:19:30;97830.41;;;35.58;30.40
12973;BME280;6551;51.056;9.466;2022-08-24T15:22:12;97841.91;;;35.31;30.26
12973;BME280;6551;51.056;9.466;2022-08-24T15:24:51;97843.69;;;35.16;30.77
12973;BME280;6551;51.056;9.466;2022-08-24T15:30:32;97827.84;;;35.13;30.02
12973;BME280;6551;51.056;9.466;2022-08-24T15:33:25;97836.66;;;35.22;29.87
12973;BME280;6551;51.056;9.466;2022-08-24T15:38:32;97824.09;;;35.02;30.95
12973;BME280;6551;51.056;9.466;2022-08-24T15:41:28;97838.09;;;35.09;31.30
12973;BME280;6551;51.056;9.466;2022-08-24T15:46:25;97830.75;;;34.97;30.85
12973;BME280;6551;51.056;9.466;2022-08-24T15:49:07;97843.53;;;35.05;31.30
12973;BME280;6551;51.056;9.466;2022-08-24T15:51:51;97838.22;;;35.19;30.91
12973;BME280;6551;51.056;9.466;2022-08-24T15:56:59;97839.97;;;35.05;32.18
12973;BME280;6551;51.056;9.466;2022-08-24T16:05:34;97833.50;;;34.45;32.28
12973;BME280;6551;51.056;9.466;2022-08-24T16:16:04;97834.63;;;34.40;32.01
12973;BME280;6551;51.056;9.466;2022-08-24T16:18:54;97834.63;;;34.18;32.44
12973;BME280;6551;51.056;9.466;2022-08-24T16:21:57;97830.88;;;34.29;32.87
12973;BME280;6551;51.056;9.466;2022-08-24T16:24:36;97831.66;;;34.07;32.50
12973;BME280;6551;51.056;9.466;2022-08-24T16:27:15;97832.38;;;34.27;32.14
12973;BME280;6551;51.056;9.466;2022-08-24T16:29:48;97833.69;;;34.33;32.19
12973;BME280;6551;51.056;9.466;2022-08-24T16:32:29;97846.41;;;34.15;32.79
12973;BME280;6551;51.056;9.466;2022-08-24T16:37:34;97840.03;;;33.91;33.16
12973;BME280;6551;51.056;9.466;2022-08-24T16:40:03;97836.34;;;33.84;33.25
12973;BME280;6551;51.056;9.466;2022-08-24T16:42:30;97845.78;;;33.83;33.36
12973;BME280;6551;51.056;9.466;2022-08-24T16:44:57;97840.53;;;33.97;33.19
12973;BME280;6551;51.056;9.466;2022-08-24T16:47:26;97839.97;;;33.88;33.88
12973;BME280;6551;51.056;9.466;2022-08-24T16:49:52;97838.34;;;34.06;33.77
12973;BME280;6551;51.056;9.466;2022-08-24T16:52:18;97840.75;;;33.88;33.49
12973;BME280;6551;51.056;9.466;2022-08-24T16:54:45;97838.81;;;33.89;33.39
12973;BME280;6551;51.056;9.466;2022-08-24T16:57:21;97850.59;;;33.86;33.46
12973;BME280;6551;51.056;9.466;2022-08-24T16:59:49;97848.47;;;33.41;33.68
12973;BME280;6551;51.056;9.466;2022-08-24T17:02:18;97836.63;;;33.40;33.83
12973;BME280;6551;51.056;9.466;2022-08-24T17:04:44;97842.09;;;33.37;34.00
12973;BME280;6551;51.056;9.466;2022-08-24T17:07:15;97848.16;;;33.08;34.18
12973;BME280;6551;51.056;9.466;2022-08-24T17:09:43;97846.25;;;32.92;34.32
12973;BME280;6551;51.056;9.466;2022-08-24T17:12:10;97844.13;;;33.05;34.13
12973;BME280;6551;51.056;9.466;2022-08-24T17:14:36;97853.63;;;32.88;34.61
12973;BME280;6551;51.056;9.466;2022-08-24T17:17:05;97845.09;;;32.78;34.82
12973;BME280;6551;51.056;9.466;2022-08-24T17:19:33;97858.63;;;32.36;35.15
12973;BME280;6551;51.056;9.466;2022-08-24T17:21:58;97850.81;;;32.07;35.36
12973;BME280;6551;51.056;9.466;2022-08-24T17:24:24;97853.06;;;31.89;34.85